sensor_id;sensor_type;location;lat;lon;timestamp;P1;durP1;ratioP1;P2;durP2;ratioP2
47309;SDS011;33046;52.270;6.832;2023-08-07T00:00:35;4.18;;;1.10;;
47309;SDS011;33046;52.270;6.832;2023-08-07T00:02:42;3.72;;;1.25;;
47309;SDS011;33046;52.270;6.832;2023-08-07T00:04:49;2.40;;;0.82;;
47309;SDS011;33046;52.270;6.832;2023-08-07T00:06:56;1.70;;;0.75;;
47309;SDS011;33046;52.270;6.832;2023-08-07T00:09:03;3.00;;;1.35;;
47309;SDS011;33046;52.270;6.832;2023-08-07T00:11:10;3.33;;;0.90;;
47309;SDS011;33046;52.270;6.832;2023-08-07T00:13:18;3.05;;;1.50;;
47309;SDS011;33046;52.270;6.832;2023-08-07T00:15:25;2.65;;;1.90;;
47309;SDS011;33046;52.270;6.832;2023-08-07T00:17:32;1.88;;;0.95;;
47309;SDS011;33046;52.270;6.832;2023-08-07T00:19:39;2.60;;;1.00;;
47309;SDS011;33046;52.270;6.832;2023-08-07T00:21:46;3.00;;;1.38;;
47309;SDS011;33046;52.270;6.832;2023-08-07T00:23:53;2.47;;;1.02;;
47309;SDS011;33046;52.270;6.832;2023-08-07T00:25:59;1.85;;;1.20;;
47309;SDS011;33046;52.270;6.832;2023-08-07T00:28:06;2.38;;;1.08;;
47309;SDS011;33046;52.270;6.832;2023-08-07T00:30:14;3.25;;;1.77;;
47309;SDS011;33046;52.270;6.832;2023-08-07T00:32:21;2.40;;;1.20;;
47309;SDS011;33046;52.270;6.832;2023-08-07T00:34:28;6.03;;;2.38;;
47309;SDS011;33046;52.270;6.832;2023-08-07T00:36:35;3.58;;;1.40;;
47309;SDS011;33046;52.270;6.832;2023-08-07T00:38:42;3.00;;;1.50;;
47309;SDS011;33046;52.270;6.832;2023-08-07T00:40:49;4.13;;;1.60;;
47309;SDS011;33046;52.270;6.832;2023-08-07T00:42:56;3.10;;;1.80;;
47309;SDS011;33046;52.270;6.832;2023-08-07T00:45:03;3.08;;;1.92;;
47309;SDS011;33046;52.270;6.832;2023-08-07T00:47:12;2.35;;;1.40;;
47309;SDS011;33046;52.270;6.832;2023-08-07T00:49:19;2.20;;;1.52;;
47309;SDS011;33046;52.270;6.832;2023-08-07T00:51:27;2.88;;;1.40;;
47309;SDS011;33046;52.270;6.832;2023-08-07T00:53:34;4.68;;;1.85;;
47309;SDS011;33046;52.270;6.832;2023-08-07T00:55:43;4.70;;;2.35;;
47309;SDS011;33046;52.270;6.832;2023-08-07T00:57:51;3.05;;;1.65;;
47309;SDS011;33046;52.270;6.832;2023-08-07T00:59:59;2.50;;;1.50;;
47309;SDS011;33046;52.270;6.832;2023-08-07T01:02:05;1.85;;;1.42;;
47309;SDS011;33046;52.270;6.832;2023-08-07T01:04:14;5.18;;;1.83;;
47309;SDS011;33046;52.270;6.832;2023-08-07T01:06:21;2.75;;;1.42;;
47309;SDS011;33046;52.270;6.832;2023-08-07T01:08:28;6.07;;;2.40;;
47309;SDS011;33046;52.270;6.832;2023-08-07T01:10:37;2.22;;;1.52;;
47309;SDS011;33046;52.270;6.832;2023-08-07T01:12:55;5.45;;;1.80;;
47309;SDS011;33046;52.270;6.832;2023-08-07T01:15:10;3.67;;;1.40;;
47309;SDS011;33046;52.270;6.832;2023-08-07T01:17:21;3.95;;;1.50;;
47309;SDS011;33046;52.270;6.832;2023-08-07T01:19:30;2.17;;;1.40;;
47309;SDS011;33046;52.270;6.832;2023-08-07T01:23:51;1.65;;;1.20;;
47309;SDS011;33046;52.270;6.832;2023-08-07T01:25:58;4.05;;;1.40;;
47309;SDS011;33046;52.270;6.832;2023-08-07T01:28:06;2.85;;;1.10;;
47309;SDS011;33046;52.270;6.832;2023-08-07T01:30:21;3.03;;;1.50;;
47309;SDS011;33046;52.270;6.832;2023-08-07T01:32:33;2.38;;;1.25;;
47309;SDS011;33046;52.270;6.832;2023-08-07T01:34:45;3.55;;;1.55;;
47309;SDS011;33046;52.270;6.832;2023-08-07T01:36:56;3.38;;;0.90;;
47309;SDS011;33046;52.270;6.832;2023-08-07T01:39:05;1.83;;;1.20;;
47309;SDS011;33046;52.270;6.832;2023-08-07T01:41:12;3.38;;;1.25;;
47309;SDS011;33046;52.270;6.832;2023-08-07T01:43:20;3.22;;;1.45;;
47309;SDS011;33046;52.270;6.832;2023-08-07T01:45:27;2.38;;;0.95;;
47309;SDS011;33046;52.270;6.832;2023-08-07T01:47:35;1.50;;;0.95;;
47309;SDS011;33046;52.270;6.832;2023-08-07T01:49:42;1.48;;;1.08;;
47309;SDS011;33046;52.270;6.832;2023-08-07T01:51:48;1.83;;;1.15;;
47309;SDS011;33046;52.270;6.832;2023-08-07T01:53:57;3.83;;;0.88;;
47309;SDS011;33046;52.270;6.832;2023-08-07T01:56:04;0.85;;;0.75;;
47309;SDS011;33046;52.270;6.832;2023-08-07T01:58:11;1.42;;;0.80;;
47309;SDS011;33046;52.270;6.832;2023-08-07T02:00:18;1.98;;;0.85;;
47309;SDS011;33046;52.270;6.832;2023-08-07T02:02:25;1.88;;;0.80;;
47309;SDS011;33046;52.270;6.832;2023-08-07T02:04:32;2.92;;;0.70;;
47309;SDS011;33046;52.270;6.832;2023-08-07T02:06:39;5.50;;;0.57;;
47309;SDS011;33046;52.270;6.832;2023-08-07T02:08:45;5.32;;;1.23;;
47309;SDS011;33046;52.270;6.832;2023-08-07T02:10:56;3.38;;;1.00;;
47309;SDS011;33046;52.270;6.832;2023-08-07T02:13:03;3.92;;;0.70;;
47309;SDS011;33046;52.270;6.832;2023-08-07T02:15:11;4.65;;;0.70;;
47309;SDS011;33046;52.270;6.832;2023-08-07T02:17:19;1.77;;;0.70;;
47309;SDS011;33046;52.270;6.832;2023-08-07T02:19:27;2.65;;;0.77;;
47309;SDS011;33046;52.270;6.832;2023-08-07T02:21:34;2.00;;;0.70;;
47309;SDS011;33046;52.270;6.832;2023-08-07T02:23:41;1.70;;;0.70;;
47309;SDS011;33046;52.270;6.832;2023-08-07T02:25:48;2.13;;;0.60;;
47309;SDS011;33046;52.270;6.832;2023-08-07T02:27:56;5.07;;;1.00;;
47309;SDS011;33046;52.270;6.832;2023-08-07T02:30:03;2.50;;;1.02;;
47309;SDS011;33046;52.270;6.832;2023-08-07T02:32:11;5.00;;;0.75;;
47309;SDS011;33046;52.270;6.832;2023-08-07T02:34:18;5.97;;;1.30;;
47309;SDS011;33046;52.270;6.832;2023-08-07T02:36:25;2.58;;;0.90;;
47309;SDS011;33046;52.270;6.832;2023-08-07T02:38:32;4.53;;;1.02;;
47309;SDS011;33046;52.270;6.832;2023-08-07T02:40:41;3.10;;;1.05;;
47309;SDS011;33046;52.270;6.832;2023-08-07T02:42:47;4.85;;;1.63;;
47309;SDS011;33046;52.270;6.832;2023-08-07T02:44:55;3.63;;;0.90;;
47309;SDS011;33046;52.270;6.832;2023-08-07T02:47:03;4.47;;;1.23;;
47309;SDS011;33046;52.270;6.832;2023-08-07T02:49:10;2.15;;;0.98;;
47309;SDS011;33046;52.270;6.832;2023-08-07T02:51:17;6.25;;;0.70;;
47309;SDS011;33046;52.270;6.832;2023-08-07T02:53:24;3.80;;;0.85;;
47309;SDS011;33046;52.270;6.832;2023-08-07T02:55:30;3.80;;;0.70;;
47309;SDS011;33046;52.270;6.832;2023-08-07T02:57:37;3.90;;;1.20;;
47309;SDS011;33046;52.270;6.832;2023-08-07T02:59:44;8.10;;;1.42;;
47309;SDS011;33046;52.270;6.832;2023-08-07T03:01:52;2.78;;;0.88;;
47309;SDS011;33046;52.270;6.832;2023-08-07T03:03:59;4.10;;;1.00;;
47309;SDS011;33046;52.270;6.832;2023-08-07T03:06:06;3.10;;;1.23;;
47309;SDS011;33046;52.270;6.832;2023-08-07T03:08:13;3.35;;;0.70;;
47309;SDS011;33046;52.270;6.832;2023-08-07T03:10:20;5.60;;;1.85;;
47309;SDS011;33046;52.270;6.832;2023-08-07T03:12:27;3.05;;;0.63;;
47309;SDS011;33046;52.270;6.832;2023-08-07T03:14:34;4.60;;;1.05;;
47309;SDS011;33046;52.270;6.832;2023-08-07T03:16:41;3.63;;;0.95;;
47309;SDS011;33046;52.270;6.832;2023-08-07T03:18:49;3.92;;;0.77;;
47309;SDS011;33046;52.270;6.832;2023-08-07T03:20:56;4.50;;;1.45;;
47309;SDS011;33046;52.270;6.832;2023-08-07T03:23:03;2.03;;;0.60;;
47309;SDS011;33046;52.270;6.832;2023-08-07T03:25:10;2.13;;;0.60;;
47309;SDS011;33046;52.270;6.832;2023-08-07T03:27:17;1.30;;;0.38;;
47309;SDS011;33046;52.270;6.832;2023-08-07T03:29:25;0.95;;;0.20;;
47309;SDS011;33046;52.270;6.832;2023-08-07T03:31:33;1.30;;;0.22;;
47309;SDS011;33046;52.270;6.832;2023-08-07T03:33:40;1.13;;;0.30;;
47309;SDS011;33046;52.270;6.832;2023-08-07T03:35:49;1.75;;;0.40;;
47309;SDS011;33046;52.270;6.832;2023-08-07T03:37:55;2.10;;;0.47;;
47309;SDS011;33046;52.270;6.832;2023-08-07T03:40:04;1.83;;;0.70;;
47309;SDS011;33046;52.270;6.832;2023-08-07T03:42:11;2.85;;;0.77;;
47309;SDS011;33046;52.270;6.832;2023-08-07T03:44:18;2.10;;;0.90;;
47309;SDS011;33046;52.270;6.832;2023-08-07T03:46:25;3.03;;;1.45;;
47309;SDS011;33046;52.270;6.832;2023-08-07T03:48:32;2.35;;;1.55;;
47309;SDS011;33046;52.270;6.832;2023-08-07T03:50:41;2.42;;;1.25;;
47309;SDS011;33046;52.270;6.832;2023-08-07T03:52:50;3.10;;;1.40;;
47309;SDS011;33046;52.270;6.832;2023-08-07T03:54:58;2.90;;;1.38;;
47309;SDS011;33046;52.270;6.832;2023-08-07T03:57:05;2.38;;;1.50;;
47309;SDS011;33046;52.270;6.832;2023-08-07T03:59:12;2.30;;;1.77;;
47309;SDS011;33046;52.270;6.832;2023-08-07T04:01:19;5.28;;;2.17;;
47309;SDS011;33046;52.270;6.832;2023-08-07T04:03:25;4.68;;;1.98;;
47309;SDS011;33046;52.270;6.832;2023-08-07T04:05:33;6.10;;;2.58;;
47309;SDS011;33046;52.270;6.832;2023-08-07T04:07:40;7.80;;;3.17;;
47309;SDS011;33046;52.270;6.832;2023-08-07T04:09:48;6.72;;;2.40;;
47309;SDS011;33046;52.270;6.832;2023-08-07T04:11:55;6.18;;;2.88;;
47309;SDS011;33046;52.270;6.832;2023-08-07T04:14:02;8.05;;;2.90;;
47309;SDS011;33046;52.270;6.832;2023-08-07T04:16:08;5.68;;;2.28;;
47309;SDS011;33046;52.270;6.832;2023-08-07T04:18:15;5.47;;;1.85;;
47309;SDS011;33046;52.270;6.832;2023-08-07T04:20:22;8.85;;;1.98;;
47309;SDS011;33046;52.270;6.832;2023-08-07T04:22:29;4.47;;;1.80;;
47309;SDS011;33046;52.270;6.832;2023-08-07T04:24:36;4.35;;;2.25;;
47309;SDS011;33046;52.270;6.832;2023-08-07T04:26:44;3.35;;;1.58;;
47309;SDS011;33046;52.270;6.832;2023-08-07T04:28:51;4.78;;;1.60;;
47309;SDS011;33046;52.270;6.832;2023-08-07T04:30:58;3.58;;;1.50;;
47309;SDS011;33046;52.270;6.832;2023-08-07T04:33:05;4.97;;;1.70;;
47309;SDS011;33046;52.270;6.832;2023-08-07T04:35:12;6.85;;;1.85;;
47309;SDS011;33046;52.270;6.832;2023-08-07T04:37:19;4.45;;;1.50;;
47309;SDS011;33046;52.270;6.832;2023-08-07T04:39:25;4.72;;;1.45;;
47309;SDS011;33046;52.270;6.832;2023-08-07T04:41:32;4.97;;;1.80;;
47309;SDS011;33046;52.270;6.832;2023-08-07T04:43:41;5.20;;;1.40;;
47309;SDS011;33046;52.270;6.832;2023-08-07T04:45:48;3.75;;;1.30;;
47309;SDS011;33046;52.270;6.832;2023-08-07T04:47:55;7.53;;;3.22;;
47309;SDS011;33046;52.270;6.832;2023-08-07T04:50:02;3.22;;;1.35;;
47309;SDS011;33046;52.270;6.832;2023-08-07T04:52:09;3.58;;;1.52;;
47309;SDS011;33046;52.270;6.832;2023-08-07T04:54:22;4.78;;;1.88;;
47309;SDS011;33046;52.270;6.832;2023-08-07T04:56:29;5.57;;;1.60;;
47309;SDS011;33046;52.270;6.832;2023-08-07T04:58:35;3.88;;;1.40;;
47309;SDS011;33046;52.270;6.832;2023-08-07T05:00:44;3.55;;;1.33;;
47309;SDS011;33046;52.270;6.832;2023-08-07T05:02:51;4.05;;;1.45;;
47309;SDS011;33046;52.270;6.832;2023-08-07T05:04:58;4.00;;;1.17;;
47309;SDS011;33046;52.270;6.832;2023-08-07T05:07:04;6.57;;;1.70;;
47309;SDS011;33046;52.270;6.832;2023-08-07T05:09:12;7.15;;;1.52;;
47309;SDS011;33046;52.270;6.832;2023-08-07T05:11:18;4.10;;;1.15;;
47309;SDS011;33046;52.270;6.832;2023-08-07T05:13:25;6.60;;;1.70;;
47309;SDS011;33046;52.270;6.832;2023-08-07T05:15:32;2.88;;;1.13;;
47309;SDS011;33046;52.270;6.832;2023-08-07T05:17:40;5.80;;;1.92;;
47309;SDS011;33046;52.270;6.832;2023-08-07T05:19:47;5.88;;;1.30;;
47309;SDS011;33046;52.270;6.832;2023-08-07T05:21:54;7.05;;;1.45;;
47309;SDS011;33046;52.270;6.832;2023-08-07T05:24:01;5.88;;;1.55;;
47309;SDS011;33046;52.270;6.832;2023-08-07T05:26:09;6.05;;;2.03;;
47309;SDS011;33046;52.270;6.832;2023-08-07T05:28:16;4.28;;;1.42;;
47309;SDS011;33046;52.270;6.832;2023-08-07T05:30:23;7.38;;;1.50;;
47309;SDS011;33046;52.270;6.832;2023-08-07T05:32:30;5.72;;;1.45;;
47309;SDS011;33046;52.270;6.832;2023-08-07T05:34:38;4.25;;;1.58;;
47309;SDS011;33046;52.270;6.832;2023-08-07T05:36:45;4.65;;;1.30;;
47309;SDS011;33046;52.270;6.832;2023-08-07T05:38:52;6.85;;;1.45;;
47309;SDS011;33046;52.270;6.832;2023-08-07T05:40:59;10.77;;;1.40;;
47309;SDS011;33046;52.270;6.832;2023-08-07T05:43:06;3.88;;;1.30;;
47309;SDS011;33046;52.270;6.832;2023-08-07T05:45:13;5.55;;;1.85;;
47309;SDS011;33046;52.270;6.832;2023-08-07T05:47:20;5.38;;;3.33;;
47309;SDS011;33046;52.270;6.832;2023-08-07T05:49:27;7.50;;;1.73;;
47309;SDS011;33046;52.270;6.832;2023-08-07T05:51:35;5.63;;;1.83;;
47309;SDS011;33046;52.270;6.832;2023-08-07T05:53:42;4.38;;;2.10;;
47309;SDS011;33046;52.270;6.832;2023-08-07T05:55:49;5.57;;;2.28;;
47309;SDS011;33046;52.270;6.832;2023-08-07T05:57:56;5.60;;;1.02;;
47309;SDS011;33046;52.270;6.832;2023-08-07T06:00:03;8.45;;;2.00;;
47309;SDS011;33046;52.270;6.832;2023-08-07T06:02:17;4.63;;;1.20;;
47309;SDS011;33046;52.270;6.832;2023-08-07T06:04:24;5.78;;;1.50;;
47309;SDS011;33046;52.270;6.832;2023-08-07T06:06:30;6.05;;;1.85;;
47309;SDS011;33046;52.270;6.832;2023-08-07T06:08:39;8.15;;;1.80;;
47309;SDS011;33046;52.270;6.832;2023-08-07T06:10:45;3.78;;;1.75;;
47309;SDS011;33046;52.270;6.832;2023-08-07T06:12:52;11.13;;;2.00;;
47309;SDS011;33046;52.270;6.832;2023-08-07T06:14:59;4.43;;;1.30;;
47309;SDS011;33046;52.270;6.832;2023-08-07T06:17:06;4.70;;;1.45;;
47309;SDS011;33046;52.270;6.832;2023-08-07T06:19:13;11.07;;;2.03;;
47309;SDS011;33046;52.270;6.832;2023-08-07T06:23:33;4.25;;;1.02;;
47309;SDS011;33046;52.270;6.832;2023-08-07T06:25:41;5.95;;;1.27;;
47309;SDS011;33046;52.270;6.832;2023-08-07T06:27:50;6.28;;;0.90;;
47309;SDS011;33046;52.270;6.832;2023-08-07T06:29:57;4.55;;;0.90;;
47309;SDS011;33046;52.270;6.832;2023-08-07T06:32:04;4.85;;;1.00;;
47309;SDS011;33046;52.270;6.832;2023-08-07T06:34:11;4.10;;;1.25;;
47309;SDS011;33046;52.270;6.832;2023-08-07T06:36:18;5.55;;;1.33;;
47309;SDS011;33046;52.270;6.832;2023-08-07T06:38:25;6.88;;;1.92;;
47309;SDS011;33046;52.270;6.832;2023-08-07T06:40:34;6.38;;;1.60;;
47309;SDS011;33046;52.270;6.832;2023-08-07T06:42:43;4.65;;;1.67;;
47309;SDS011;33046;52.270;6.832;2023-08-07T06:44:50;4.72;;;1.20;;
47309;SDS011;33046;52.270;6.832;2023-08-07T06:46:56;6.72;;;1.63;;
47309;SDS011;33046;52.270;6.832;2023-08-07T06:49:03;6.15;;;1.15;;
47309;SDS011;33046;52.270;6.832;2023-08-07T06:51:10;3.25;;;1.40;;
47309;SDS011;33046;52.270;6.832;2023-08-07T06:53:17;7.55;;;1.65;;
47309;SDS011;33046;52.270;6.832;2023-08-07T06:55:25;5.10;;;1.35;;
47309;SDS011;33046;52.270;6.832;2023-08-07T06:57:32;8.85;;;1.80;;
47309;SDS011;33046;52.270;6.832;2023-08-07T06:59:40;3.60;;;1.50;;
47309;SDS011;33046;52.270;6.832;2023-08-07T07:01:47;8.45;;;1.45;;
47309;SDS011;33046;52.270;6.832;2023-08-07T07:03:54;4.50;;;1.83;;
47309;SDS011;33046;52.270;6.832;2023-08-07T07:06:01;5.55;;;1.05;;
47309;SDS011;33046;52.270;6.832;2023-08-07T07:08:07;4.10;;;1.65;;
47309;SDS011;33046;52.270;6.832;2023-08-07T07:10:14;6.10;;;1.90;;
47309;SDS011;33046;52.270;6.832;2023-08-07T07:12:21;5.93;;;1.48;;
47309;SDS011;33046;52.270;6.832;2023-08-07T07:14:28;6.32;;;1.67;;
47309;SDS011;33046;52.270;6.832;2023-08-07T07:16:36;8.05;;;2.50;;
47309;SDS011;33046;52.270;6.832;2023-08-07T07:18:43;5.40;;;1.60;;
47309;SDS011;33046;52.270;6.832;2023-08-07T07:20:56;5.38;;;1.27;;
47309;SDS011;33046;52.270;6.832;2023-08-07T07:23:03;4.82;;;1.63;;
47309;SDS011;33046;52.270;6.832;2023-08-07T07:25:11;8.52;;;1.50;;
47309;SDS011;33046;52.270;6.832;2023-08-07T07:27:18;8.95;;;2.15;;
47309;SDS011;33046;52.270;6.832;2023-08-07T07:29:26;6.05;;;1.65;;
47309;SDS011;33046;52.270;6.832;2023-08-07T07:31:33;6.97;;;2.33;;
47309;SDS011;33046;52.270;6.832;2023-08-07T07:33:42;5.00;;;1.30;;
47309;SDS011;33046;52.270;6.832;2023-08-07T07:35:48;5.55;;;1.50;;
47309;SDS011;33046;52.270;6.832;2023-08-07T07:37:55;6.57;;;1.77;;
47309;SDS011;33046;52.270;6.832;2023-08-07T07:40:02;6.18;;;1.52;;
47309;SDS011;33046;52.270;6.832;2023-08-07T07:42:10;4.25;;;1.50;;
47309;SDS011;33046;52.270;6.832;2023-08-07T07:44:17;7.45;;;1.23;;
47309;SDS011;33046;52.270;6.832;2023-08-07T07:46:24;7.28;;;1.80;;
47309;SDS011;33046;52.270;6.832;2023-08-07T07:48:32;4.10;;;1.70;;
47309;SDS011;33046;52.270;6.832;2023-08-07T07:50:40;10.35;;;2.15;;
47309;SDS011;33046;52.270;6.832;2023-08-07T07:52:47;7.03;;;2.03;;
47309;SDS011;33046;52.270;6.832;2023-08-07T07:54:54;5.05;;;1.48;;
47309;SDS011;33046;52.270;6.832;2023-08-07T07:57:01;7.70;;;1.95;;
47309;SDS011;33046;52.270;6.832;2023-08-07T07:59:08;9.90;;;2.50;;
47309;SDS011;33046;52.270;6.832;2023-08-07T08:01:15;9.73;;;2.25;;
47309;SDS011;33046;52.270;6.832;2023-08-07T08:03:22;12.60;;;2.67;;
47309;SDS011;33046;52.270;6.832;2023-08-07T08:05:28;6.47;;;1.60;;
47309;SDS011;33046;52.270;6.832;2023-08-07T08:07:37;6.40;;;1.73;;
47309;SDS011;33046;52.270;6.832;2023-08-07T08:09:44;6.60;;;1.52;;
47309;SDS011;33046;52.270;6.832;2023-08-07T08:11:51;8.73;;;2.33;;
47309;SDS011;33046;52.270;6.832;2023-08-07T08:13:58;9.52;;;2.50;;
47309;SDS011;33046;52.270;6.832;2023-08-07T08:16:05;5.28;;;1.77;;
47309;SDS011;33046;52.270;6.832;2023-08-07T08:18:11;5.85;;;1.60;;
47309;SDS011;33046;52.270;6.832;2023-08-07T08:20:18;5.30;;;2.15;;
47309;SDS011;33046;52.270;6.832;2023-08-07T08:22:25;6.88;;;1.70;;
47309;SDS011;33046;52.270;6.832;2023-08-07T08:24:33;7.57;;;2.33;;
47309;SDS011;33046;52.270;6.832;2023-08-07T08:26:40;6.80;;;1.60;;
47309;SDS011;33046;52.270;6.832;2023-08-07T08:28:47;7.68;;;2.05;;
47309;SDS011;33046;52.270;6.832;2023-08-07T08:30:54;5.43;;;1.50;;
47309;SDS011;33046;52.270;6.832;2023-08-07T08:33:01;8.55;;;1.50;;
47309;SDS011;33046;52.270;6.832;2023-08-07T08:35:08;4.90;;;1.10;;
47309;SDS011;33046;52.270;6.832;2023-08-07T08:37:15;4.93;;;1.95;;
47309;SDS011;33046;52.270;6.832;2023-08-07T08:39:22;4.88;;;1.23;;
47309;SDS011;33046;52.270;6.832;2023-08-07T08:41:30;2.40;;;1.25;;
47309;SDS011;33046;52.270;6.832;2023-08-07T08:43:38;4.25;;;1.10;;
47309;SDS011;33046;52.270;6.832;2023-08-07T08:45:49;4.05;;;1.08;;
47309;SDS011;33046;52.270;6.832;2023-08-07T08:47:58;4.35;;;1.40;;
47309;SDS011;33046;52.270;6.832;2023-08-07T08:50:08;8.43;;;3.15;;
47309;SDS011;33046;52.270;6.832;2023-08-07T08:52:16;10.40;;;6.28;;
47309;SDS011;33046;52.270;6.832;2023-08-07T08:54:24;13.88;;;8.65;;
47309;SDS011;33046;52.270;6.832;2023-08-07T08:56:33;11.85;;;7.65;;
47309;SDS011;33046;52.270;6.832;2023-08-07T08:58:41;9.85;;;6.30;;
47309;SDS011;33046;52.270;6.832;2023-08-07T09:00:48;8.93;;;3.92;;
47309;SDS011;33046;52.270;6.832;2023-08-07T09:02:56;9.10;;;4.05;;
47309;SDS011;33046;52.270;6.832;2023-08-07T09:05:04;9.98;;;3.30;;
47309;SDS011;33046;52.270;6.832;2023-08-07T09:07:11;8.73;;;1.85;;
47309;SDS011;33046;52.270;6.832;2023-08-07T09:09:20;6.90;;;1.92;;
47309;SDS011;33046;52.270;6.832;2023-08-07T09:11:28;8.43;;;2.00;;
47309;SDS011;33046;52.270;6.832;2023-08-07T09:13:38;6.25;;;1.48;;
47309;SDS011;33046;52.270;6.832;2023-08-07T09:15:46;10.20;;;2.60;;
47309;SDS011;33046;52.270;6.832;2023-08-07T09:17:54;6.43;;;1.50;;
47309;SDS011;33046;52.270;6.832;2023-08-07T09:20:01;6.63;;;1.40;;
47309;SDS011;33046;52.270;6.832;2023-08-07T09:22:08;5.57;;;1.40;;
47309;SDS011;33046;52.270;6.832;2023-08-07T09:24:16;6.93;;;1.02;;
47309;SDS011;33046;52.270;6.832;2023-08-07T09:26:23;8.43;;;1.67;;
47309;SDS011;33046;52.270;6.832;2023-08-07T09:28:30;6.22;;;1.30;;
47309;SDS011;33046;52.270;6.832;2023-08-07T09:30:40;5.95;;;1.38;;
47309;SDS011;33046;52.270;6.832;2023-08-07T09:32:48;2.85;;;0.98;;
47309;SDS011;33046;52.270;6.832;2023-08-07T09:34:55;5.85;;;1.25;;
47309;SDS011;33046;52.270;6.832;2023-08-07T09:37:02;8.55;;;1.77;;
47309;SDS011;33046;52.270;6.832;2023-08-07T09:39:09;3.10;;;1.27;;
47309;SDS011;33046;52.270;6.832;2023-08-07T09:41:17;5.28;;;1.33;;
47309;SDS011;33046;52.270;6.832;2023-08-07T09:43:24;5.18;;;1.00;;
47309;SDS011;33046;52.270;6.832;2023-08-07T09:45:31;6.75;;;1.73;;
47309;SDS011;33046;52.270;6.832;2023-08-07T09:47:39;5.55;;;1.40;;
47309;SDS011;33046;52.270;6.832;2023-08-07T09:49:47;7.32;;;1.60;;
47309;SDS011;33046;52.270;6.832;2023-08-07T09:51:54;5.93;;;1.45;;
47309;SDS011;33046;52.270;6.832;2023-08-07T09:54:01;6.15;;;1.65;;
47309;SDS011;33046;52.270;6.832;2023-08-07T09:56:08;7.28;;;1.40;;
47309;SDS011;33046;52.270;6.832;2023-08-07T09:58:15;4.65;;;2.10;;
47309;SDS011;33046;52.270;6.832;2023-08-07T10:00:22;5.63;;;1.27;;
47309;SDS011;33046;52.270;6.832;2023-08-07T10:02:29;5.75;;;1.70;;
47309;SDS011;33046;52.270;6.832;2023-08-07T10:04:37;5.60;;;1.63;;
47309;SDS011;33046;52.270;6.832;2023-08-07T10:06:44;3.75;;;1.33;;
47309;SDS011;33046;52.270;6.832;2023-08-07T10:08:52;6.07;;;1.45;;
47309;SDS011;33046;52.270;6.832;2023-08-07T10:11:01;3.40;;;1.05;;
47309;SDS011;33046;52.270;6.832;2023-08-07T10:13:08;3.67;;;1.00;;
47309;SDS011;33046;52.270;6.832;2023-08-07T10:15:19;4.28;;;0.95;;
47309;SDS011;33046;52.270;6.832;2023-08-07T10:17:27;5.47;;;1.45;;
47309;SDS011;33046;52.270;6.832;2023-08-07T10:19:34;8.00;;;1.40;;
47309;SDS011;33046;52.270;6.832;2023-08-07T10:21:43;5.57;;;1.85;;
47309;SDS011;33046;52.270;6.832;2023-08-07T10:23:51;4.90;;;1.38;;
47309;SDS011;33046;52.270;6.832;2023-08-07T10:25:59;3.45;;;1.05;;
47309;SDS011;33046;52.270;6.832;2023-08-07T10:28:10;2.47;;;1.38;;
47309;SDS011;33046;52.270;6.832;2023-08-07T10:30:20;4.47;;;1.27;;
47309;SDS011;33046;52.270;6.832;2023-08-07T10:32:29;4.30;;;1.35;;
47309;SDS011;33046;52.270;6.832;2023-08-07T10:34:37;4.18;;;1.35;;
47309;SDS011;33046;52.270;6.832;2023-08-07T10:36:46;4.43;;;1.13;;
47309;SDS011;33046;52.270;6.832;2023-08-07T10:38:55;2.83;;;0.68;;
47309;SDS011;33046;52.270;6.832;2023-08-07T10:41:14;6.82;;;1.10;;
47309;SDS011;33046;52.270;6.832;2023-08-07T10:43:21;3.42;;;1.38;;
47309;SDS011;33046;52.270;6.832;2023-08-07T10:45:34;7.85;;;1.48;;
47309;SDS011;33046;52.270;6.832;2023-08-07T10:47:42;7.70;;;1.27;;
47309;SDS011;33046;52.270;6.832;2023-08-07T10:49:49;4.95;;;0.93;;
47309;SDS011;33046;52.270;6.832;2023-08-07T10:51:57;3.08;;;0.85;;
47309;SDS011;33046;52.270;6.832;2023-08-07T10:54:04;2.45;;;0.73;;
47309;SDS011;33046;52.270;6.832;2023-08-07T10:56:15;4.47;;;1.10;;
47309;SDS011;33046;52.270;6.832;2023-08-07T10:58:23;4.50;;;1.80;;
47309;SDS011;33046;52.270;6.832;2023-08-07T11:00:30;6.43;;;1.60;;
47309;SDS011;33046;52.270;6.832;2023-08-07T11:02:37;5.07;;;1.38;;
47309;SDS011;33046;52.270;6.832;2023-08-07T11:04:47;5.43;;;0.90;;
47309;SDS011;33046;52.270;6.832;2023-08-07T11:06:54;5.55;;;1.60;;
47309;SDS011;33046;52.270;6.832;2023-08-07T11:09:04;8.57;;;1.15;;
47309;SDS011;33046;52.270;6.832;2023-08-07T11:11:12;2.90;;;1.00;;
47309;SDS011;33046;52.270;6.832;2023-08-07T11:13:19;4.45;;;1.20;;
47309;SDS011;33046;52.270;6.832;2023-08-07T11:15:26;2.95;;;1.17;;
47309;SDS011;33046;52.270;6.832;2023-08-07T11:17:33;5.95;;;1.92;;
47309;SDS011;33046;52.270;6.832;2023-08-07T11:19:39;3.17;;;0.70;;
47309;SDS011;33046;52.270;6.832;2023-08-07T11:21:47;8.57;;;1.13;;
47309;SDS011;33046;52.270;6.832;2023-08-07T11:23:55;2.65;;;0.80;;
47309;SDS011;33046;52.270;6.832;2023-08-07T11:26:02;5.55;;;1.00;;
47309;SDS011;33046;52.270;6.832;2023-08-07T11:28:09;2.78;;;1.00;;
47309;SDS011;33046;52.270;6.832;2023-08-07T11:30:16;3.45;;;1.13;;
47309;SDS011;33046;52.270;6.832;2023-08-07T11:32:23;2.55;;;1.00;;
47309;SDS011;33046;52.270;6.832;2023-08-07T11:34:30;1.88;;;0.70;;
47309;SDS011;33046;52.270;6.832;2023-08-07T11:36:40;3.92;;;1.10;;
47309;SDS011;33046;52.270;6.832;2023-08-07T11:38:47;3.40;;;0.90;;
47309;SDS011;33046;52.270;6.832;2023-08-07T11:40:56;3.65;;;1.30;;
47309;SDS011;33046;52.270;6.832;2023-08-07T11:43:03;1.52;;;0.63;;
47309;SDS011;33046;52.270;6.832;2023-08-07T11:45:10;2.90;;;0.70;;
47309;SDS011;33046;52.270;6.832;2023-08-07T11:47:17;3.00;;;0.88;;
47309;SDS011;33046;52.270;6.832;2023-08-07T11:49:24;3.55;;;1.33;;
47309;SDS011;33046;52.270;6.832;2023-08-07T11:51:30;5.80;;;1.45;;
47309;SDS011;33046;52.270;6.832;2023-08-07T11:53:39;2.88;;;1.08;;
47309;SDS011;33046;52.270;6.832;2023-08-07T11:55:47;4.05;;;0.95;;
47309;SDS011;33046;52.270;6.832;2023-08-07T11:57:59;5.25;;;1.20;;
47309;SDS011;33046;52.270;6.832;2023-08-07T12:00:09;3.47;;;1.15;;
47309;SDS011;33046;52.270;6.832;2023-08-07T12:02:16;13.13;;;1.60;;
47309;SDS011;33046;52.270;6.832;2023-08-07T12:04:29;4.88;;;1.35;;
47309;SDS011;33046;52.270;6.832;2023-08-07T12:06:52;4.65;;;1.50;;
47309;SDS011;33046;52.270;6.832;2023-08-07T12:08:59;4.05;;;0.95;;
47309;SDS011;33046;52.270;6.832;2023-08-07T12:11:07;4.60;;;0.80;;
47309;SDS011;33046;52.270;6.832;2023-08-07T12:13:19;5.47;;;1.63;;
47309;SDS011;33046;52.270;6.832;2023-08-07T12:15:27;4.78;;;1.40;;
47309;SDS011;33046;52.270;6.832;2023-08-07T12:17:35;3.67;;;1.80;;
47309;SDS011;33046;52.270;6.832;2023-08-07T12:19:42;3.92;;;1.10;;
47309;SDS011;33046;52.270;6.832;2023-08-07T12:21:49;4.63;;;1.13;;
47309;SDS011;33046;52.270;6.832;2023-08-07T12:23:56;4.72;;;1.13;;
47309;SDS011;33046;52.270;6.832;2023-08-07T12:26:03;4.22;;;0.98;;
47309;SDS011;33046;52.270;6.832;2023-08-07T12:28:11;5.30;;;1.23;;
47309;SDS011;33046;52.270;6.832;2023-08-07T12:30:19;5.22;;;1.88;;
47309;SDS011;33046;52.270;6.832;2023-08-07T12:32:26;4.22;;;1.20;;
47309;SDS011;33046;52.270;6.832;2023-08-07T12:34:33;5.10;;;1.00;;
47309;SDS011;33046;52.270;6.832;2023-08-07T12:36:41;3.25;;;1.00;;
47309;SDS011;33046;52.270;6.832;2023-08-07T12:38:48;4.25;;;1.27;;
47309;SDS011;33046;52.270;6.832;2023-08-07T12:40:55;5.15;;;1.02;;
47309;SDS011;33046;52.270;6.832;2023-08-07T12:43:02;4.00;;;1.20;;
47309;SDS011;33046;52.270;6.832;2023-08-07T12:45:09;4.30;;;0.98;;
47309;SDS011;33046;52.270;6.832;2023-08-07T12:47:18;3.60;;;0.80;;
47309;SDS011;33046;52.270;6.832;2023-08-07T12:49:24;5.55;;;0.90;;
47309;SDS011;33046;52.270;6.832;2023-08-07T12:51:31;3.67;;;0.98;;
47309;SDS011;33046;52.270;6.832;2023-08-07T12:53:38;2.60;;;0.80;;